createdAt,value
2023-01-01T00:00:01.357Z,1016.48
2023-01-01T00:10:00.770Z,1016.60
2023-01-01T00:20:01.543Z,1016.68
2023-01-01T00:30:01.111Z,1016.73
2023-01-01T00:50:01.884Z,1016.62
2023-01-01T01:00:02.161Z,1016.86
2023-01-01T01:10:01.047Z,1016.99
2023-01-01T01:20:01.082Z,1017.04
2023-01-01T01:30:00.990Z,1017.04
2023-01-01T01:50:01.208Z,1017.13
2023-01-01T02:00:05.200Z,1017.11
2023-01-01T02:10:01.231Z,1017.00
2023-01-01T02:20:01.360Z,1017.20
2023-01-01T02:30:01.041Z,1017.11
2023-01-01T02:40:01.102Z,1017.04
2023-01-01T02:50:01.365Z,1016.92
2023-01-01T03:00:00.997Z,1017.15
2023-01-01T03:10:01.231Z,1016.86
2023-01-01T03:20:01.122Z,1017.23
2023-01-01T03:30:01.055Z,1017.15
2023-01-01T03:40:01.075Z,1017.07
2023-01-01T03:50:01.290Z,1017.08
2023-01-01T04:00:01.059Z,1017.33
2023-01-01T04:10:00.996Z,1017.46
2023-01-01T04:20:01.300Z,1017.62
2023-01-01T04:30:01.780Z,1017.66
2023-01-01T04:50:00.993Z,1017.77
2023-01-01T05:00:03.136Z,1017.84
2023-01-01T05:10:01.021Z,1017.82
2023-01-01T05:20:01.303Z,1017.88
2023-01-01T05:30:01.517Z,1018.07
2023-01-01T06:00:01.099Z,1018.01
2023-01-01T06:10:01.893Z,1018.05
2023-01-01T06:20:01.011Z,1018.10
2023-01-01T06:30:02.979Z,1018.36
2023-01-01T06:40:01.385Z,1018.35
2023-01-01T06:50:01.014Z,1018.41
2023-01-01T07:00:01.072Z,1018.45
2023-01-01T07:10:00.992Z,1018.56
2023-01-01T07:20:01.538Z,1018.69
2023-01-01T07:30:01.005Z,1018.83
2023-01-01T07:40:01.105Z,1018.89
2023-01-01T07:50:01.162Z,1018.94
2023-01-01T08:00:01.023Z,1019.31
2023-01-01T08:10:03.368Z,1019.38
2023-01-01T08:20:02.336Z,1019.33
2023-01-01T08:30:01.486Z,1019.29
2023-01-01T08:40:01.186Z,1019.60
2023-01-01T08:50:01.444Z,1019.82
2023-01-01T09:00:01.553Z,1019.83
2023-01-01T09:10:00.819Z,1019.96
2023-01-01T09:20:01.046Z,1020.18
2023-01-01T09:30:01.313Z,1020.43
2023-01-01T09:40:01.271Z,1020.43
2023-01-01T09:50:01.920Z,1020.35
2023-01-01T10:00:01.178Z,1020.41
2023-01-01T10:10:00.985Z,1020.51
2023-01-01T10:20:01.198Z,1020.58
2023-01-01T10:30:04.075Z,1020.49
2023-01-01T10:40:01.379Z,1020.74
2023-01-01T10:50:01.015Z,1020.99
2023-01-01T11:00:01.050Z,1020.74
2023-01-01T11:10:03.927Z,1020.94
2023-01-01T11:20:02.274Z,1021.09
2023-01-01T11:30:01.059Z,1021.27
2023-01-01T11:40:01.056Z,1021.20
2023-01-01T11:50:01.470Z,1021.08
2023-01-01T12:00:00.268Z,1021.29
2023-01-01T12:10:01.225Z,1021.27
2023-01-01T12:20:02.089Z,1021.43
2023-01-01T12:30:01.035Z,1021.42
2023-01-01T12:40:01.254Z,1021.23
2023-01-01T12:50:01.474Z,1021.16
2023-01-01T13:00:01.628Z,1021.19
2023-01-01T13:10:01.112Z,1021.23
2023-01-01T13:20:01.206Z,1021.48
2023-01-01T13:30:02.240Z,1021.59
2023-01-01T13:40:02.556Z,1021.82
2023-01-01T13:50:01.436Z,1022.04
2023-01-01T14:00:01.024Z,1022.21
2023-01-01T14:10:00.994Z,1022.38
2023-01-01T14:20:00.975Z,1022.37
2023-01-01T14:30:01.541Z,1022.32
2023-01-01T14:50:01.254Z,1022.56
2023-01-01T15:00:00.295Z,1022.69
2023-01-01T15:10:01.159Z,1022.69
2023-01-01T15:20:01.033Z,1023.00
2023-01-01T15:30:01.116Z,1023.22
2023-01-01T15:40:01.270Z,1023.21
2023-01-01T15:50:01.490Z,1023.32
2023-01-01T16:00:01.304Z,1023.41
2023-01-01T16:10:01.232Z,1023.53
2023-01-01T16:20:01.153Z,1023.60
2023-01-01T16:30:00.229Z,1023.55
2023-01-01T16:40:01.384Z,1023.55
2023-01-01T16:50:01.310Z,1023.56
2023-01-01T17:00:01.212Z,1023.71
2023-01-01T17:10:01.350Z,1023.91
2023-01-01T17:20:01.117Z,1023.83
2023-01-01T17:30:02.430Z,1023.89
2023-01-01T17:40:01.061Z,1023.95
2023-01-01T17:50:01.108Z,1023.91
2023-01-01T18:00:02.640Z,1023.84
2023-01-01T18:10:01.286Z,1023.88
2023-01-01T18:20:02.434Z,1023.87
2023-01-01T18:30:02.157Z,1023.95
2023-01-01T18:40:01.154Z,1023.88
2023-01-01T18:50:02.078Z,1023.98
2023-01-01T19:00:01.844Z,1024.05
2023-01-01T19:10:01.071Z,1024.08
2023-01-01T19:20:01.039Z,1024.09
2023-01-01T19:30:02.463Z,1024.05
2023-01-01T19:40:01.278Z,1023.95
2023-01-01T19:50:00.223Z,1023.93
2023-01-01T20:00:01.343Z,1023.91
2023-01-01T20:10:01.688Z,1023.75
2023-01-01T20:20:01.075Z,1023.70
2023-01-01T20:30:02.542Z,1023.60
2023-01-01T20:50:01.487Z,1023.49
2023-01-01T21:00:01.300Z,1023.42
2023-01-01T21:10:01.711Z,1023.47
2023-01-01T21:20:02.189Z,1023.30
2023-01-01T21:30:02.295Z,1023.21
2023-01-01T21:50:01.218Z,1023.41
2023-01-01T22:00:01.592Z,1023.51
2023-01-01T22:10:01.914Z,1023.49
2023-01-01T22:30:01.534Z,1023.48
2023-01-01T22:40:01.174Z,1023.40
2023-01-01T22:50:02.016Z,1023.29
2023-01-01T23:00:00.245Z,1023.22
2023-01-01T23:10:01.497Z,1022.95
2023-01-01T23:20:02.231Z,1022.82
2023-01-01T23:30:01.909Z,1022.66
2023-01-01T23:40:01.107Z,1022.56
2023-01-01T23:50:01.559Z,1022.41
